Time;durP1;ratioP1;P1;durP2;ratioP2;P2;SDS_P1;SDS_P2;PMS_P1;PMS_P2;Temp;Humidity;BMP_temperature;BMP_pressure;BME280_temperature;BME280_humidity;BME280_pressure;Samples;Min_cycle;Max_cycle;Signal;HPM_P1;HPM_P2
2022/12/09 00:01:06;;;;;;;67.55;23.02;;;;;;;2.19;100.00;100786.97;5008741;28;20033;-67
2022/12/09 00:03:32;;;;;;;57.38;23.52;;;;;;;2.06;100.00;100786.13;5008735;28;20393;-66
2022/12/09 00:05:57;;;;;;;53.28;23.33;;;;;;;2.04;100.00;100787.00;5008983;28;20029;-68
2022/12/09 00:08:22;;;;;;;65.50;23.52;;;;;;;2.01;100.00;100795.63;5008701;28;20050;-68
2022/12/09 00:10:47;;;;;;;59.58;24.85;;;;;;;2.16;100.00;100781.78;5006865;28;20034;-67
2022/12/09 00:13:13;;;;;;;48.90;24.05;;;;;;;2.14;100.00;100778.31;5008847;28;20028;-68
2022/12/09 00:15:40;;;;;;;54.83;23.02;;;;;;;2.13;100.00;100776.56;5009127;28;20026;-67
2022/12/09 00:18:05;;;;;;;65.50;24.80;;;;;;;2.07;100.00;100781.75;5008994;28;20592;-67
2022/12/09 00:20:31;;;;;;;61.72;24.35;;;;;;;2.12;100.00;100778.31;5007563;28;20109;-66
2022/12/09 00:22:56;;;;;;;59.47;24.67;;;;;;;2.10;100.00;100779.16;5006460;28;20030;-67
2022/12/09 00:25:21;;;;;;;55.03;24.42;;;;;;;2.21;100.00;100784.38;5006955;28;20026;-67
2022/12/09 00:27:46;;;;;;;62.67;25.13;;;;;;;2.22;100.00;100783.50;5008104;28;20037;-67
2022/12/09 00:30:12;;;;;;;61.67;26.60;;;;;;;2.24;100.00;100779.19;5008597;28;20469;-68
2022/12/09 00:32:37;;;;;;;65.05;27.02;;;;;;;2.33;100.00;100778.31;5008847;28;20539;-67
2022/12/09 00:35:03;;;;;;;59.58;27.20;;;;;;;2.27;100.00;100779.19;5008220;28;20822;-66
2022/12/09 00:37:28;;;;;;;65.82;27.52;;;;;;;2.19;100.00;100771.38;5008345;28;20034;-68
2022/12/09 00:39:54;;;;;;;66.40;27.33;;;;;;;2.27;100.00;100777.47;5007856;28;20060;-67
2022/12/09 00:42:19;;;;;;;67.15;27.88;;;;;;;2.33;100.00;100780.91;5008626;28;20524;-67
2022/12/09 00:44:45;;;;;;;67.25;29.42;;;;;;;2.29;100.00;100781.78;5008259;28;20030;-66
2022/12/09 00:47:10;;;;;;;66.28;28.23;;;;;;;2.31;100.00;100786.09;5008446;28;20073;-68
2022/12/09 00:49:35;;;;;;;71.53;28.13;;;;;;;2.33;100.00;100789.59;5007654;28;20061;-67
2022/12/09 00:52:00;;;;;;;66.00;29.17;;;;;;;2.28;100.00;100791.31;5007858;28;20084;-67
2022/12/09 00:54:26;;;;;;;65.82;28.73;;;;;;;2.26;100.00;100787.84;5006385;28;20030;-67
2022/12/09 00:56:51;;;;;;;60.97;25.60;;;;;;;2.26;100.00;100790.47;5006889;28;20044;-67
2022/12/09 00:59:16;;;;;;;59.33;25.63;;;;;;;2.27;100.00;100793.06;5008512;28;20468;-65
2022/12/09 01:01:42;;;;;;;58.05;25.70;;;;;;;2.22;100.00;100791.31;5008097;28;20560;-67
2022/12/09 01:04:07;;;;;;;64.22;27.08;;;;;;;2.06;100.00;100800.84;5008504;28;20480;-67
2022/12/09 01:06:32;;;;;;;58.42;25.67;;;;;;;2.27;100.00;100803.47;5007321;28;20469;-68
2022/12/09 01:08:58;;;;;;;57.63;25.88;;;;;;;2.27;100.00;100800.84;5006972;28;20050;-66
2022/12/09 01:11:26;;;;;;;54.83;25.30;;;;;;;2.41;100.00;100800.00;5007623;28;20026;-67
2022/12/09 01:13:51;;;;;;;62.10;27.33;;;;;;;2.32;100.00;100807.78;5005862;28;20026;-67
2022/12/09 01:16:28;;;;;;;54.15;24.98;;;;;;;2.18;100.00;100806.06;5008044;28;20033;-67
2022/12/09 01:18:56;;;;;;;57.90;26.35;;;;;;;2.12;100.00;100816.44;5007743;28;20084;-67
2022/12/09 01:21:23;;;;;;;53.38;25.42;;;;;;;2.14;100.00;100804.31;5008256;28;20018;-67
2022/12/09 01:23:48;;;;;;;49.08;24.73;;;;;;;2.19;100.00;100806.91;5011752;28;20060;-67
2022/12/09 01:26:13;;;;;;;47.58;22.95;;;;;;;2.18;100.00;100806.06;5010978;28;20032;-68
2022/12/09 01:28:39;;;;;;;47.03;23.65;;;;;;;2.13;100.00;100808.66;5010664;28;20113;-67
2022/12/09 01:31:13;;;;;;;44.45;23.15;;;;;;;2.16;100.00;100809.53;5012278;28;20102;-68
2022/12/09 01:33:39;;;;;;;40.78;22.48;;;;;;;2.16;100.00;100801.72;5011891;28;20037;-67
2022/12/09 01:36:06;;;;;;;41.55;22.25;;;;;;;2.26;100.00;100817.31;5011357;28;20034;-67
2022/12/09 01:38:32;;;;;;;43.97;22.75;;;;;;;2.25;100.00;100812.09;5010606;28;20113;-67
2022/12/09 01:40:57;;;;;;;39.65;19.48;;;;;;;2.11;100.00;100812.13;5010874;28;20101;-68
2022/12/09 01:43:23;;;;;;;38.78;19.30;;;;;;;2.16;100.00;100806.94;5011574;28;20022;-68
2022/12/09 01:45:48;;;;;;;41.40;21.50;;;;;;;2.06;100.00;100808.63;5011229;28;20424;-67
2022/12/09 01:50:53;;;;;;;39.17;19.60;;;;;;;1.93;100.00;100815.56;3591201;23;20058;-62
2022/12/09 01:53:21;;;;;;;40.25;21.33;;;;;;;1.95;100.00;100819.00;5018016;28;20038;-62
2022/12/09 01:55:47;;;;;;;46.05;20.88;;;;;;;1.97;100.00;100815.56;5009077;28;20049;-63
2022/12/09 01:58:13;;;;;;;43.08;21.63;;;;;;;2.02;100.00;100807.78;5009272;28;20065;-62
2022/12/09 02:00:38;;;;;;;42.20;21.30;;;;;;;2.05;100.00;100804.31;5013524;28;20022;-62
2022/12/09 02:03:04;;;;;;;50.95;22.33;;;;;;;1.93;100.00;100806.03;5029994;28;20135;-61
2022/12/09 02:05:30;;;;;;;48.38;22.35;;;;;;;2.00;100.00;100804.31;5028095;28;20025;-62
2022/12/09 02:07:55;;;;;;;46.63;22.48;;;;;;;2.03;100.00;100806.91;5029855;28;20029;-62
2022/12/09 02:10:21;;;;;;;51.42;21.92;;;;;;;2.06;100.00;100808.63;5031027;28;20030;-63
2022/12/09 02:13:13;;;;;;;50.15;22.60;;;;;;;2.04;100.00;100807.78;5030988;28;20375;-61
2022/12/09 02:16:00;;;;;;;46.67;20.67;;;;;;;2.01;100.00;100806.91;5030864;28;20029;-61
2022/12/09 02:19:10;;;;;;;47.47;19.98;;;;;;;1.89;100.00;100802.56;5029204;28;20040;-62
2022/12/09 02:21:38;;;;;;;50.83;20.25;;;;;;;1.92;100.00;100796.50;5030052;28;20033;-61
2022/12/09 02:24:09;;;;;;;48.67;21.08;;;;;;;1.98;100.00;100799.09;5029091;28;20030;-60
2022/12/09 02:26:40;;;;;;;46.40;20.02;;;;;;;2.00;100.00;100794.78;5030633;28;20040;-62
2022/12/09 02:29:43;;;;;;;56.55;22.98;;;;;;;2.02;100.00;100790.44;5026252;28;20479;-60
2022/12/09 02:32:37;;;;;;;58.75;21.45;;;;;;;2.07;100.00;100786.97;5030278;28;20041;-63
2022/12/09 02:35:09;;;;;;;49.90;20.75;;;;;;;2.03;100.00;100786.09;5027518;28;20078;-56
2022/12/09 02:37:41;;;;;;;42.30;18.30;;;;;;;1.93;100.00;100792.16;5028892;28;20034;-61
2022/12/09 02:40:34;;;;;;;39.67;16.42;;;;;;;2.00;100.00;100789.59;5029335;28;20033;-63
2022/12/09 02:43:01;;;;;;;39.22;16.23;;;;;;;2.00;100.00;100784.38;5020249;28;20048;-62
2022/12/09 02:45:28;;;;;;;35.92;15.93;;;;;;;1.98;100.00;100793.03;5028914;28;20037;-62
2022/12/09 02:47:54;;;;;;;38.50;16.70;;;;;;;1.98;100.00;100793.91;5028169;28;20475;-60
2022/12/09 02:50:23;;;;;;;37.63;15.02;;;;;;;2.02;100.00;100790.44;5028980;28;20119;-62
2022/12/09 02:52:50;;;;;;;35.25;15.50;;;;;;;1.97;100.00;100792.19;5027259;28;20029;-61
2022/12/09 02:55:17;;;;;;;35.30;15.60;;;;;;;1.93;100.00;100789.56;5029114;28;20488;-62
2022/12/09 02:57:42;;;;;;;36.28;16.08;;;;;;;1.99;100.00;100793.03;5028400;28;20043;-62
2022/12/09 03:00:10;;;;;;;39.33;17.02;;;;;;;1.95;100.00;100791.28;5029690;28;20112;-62
2022/12/09 03:02:38;;;;;;;35.72;14.55;;;;;;;1.94;100.00;100775.69;5028684;28;20053;-57
2022/12/09 03:05:22;;;;;;;36.47;14.93;;;;;;;1.93;100.00;100776.56;5027789;28;20021;-62
2022/12/09 03:08:05;;;;;;;37.60;15.35;;;;;;;1.97;100.00;100779.19;5028837;28;20107;-61
2022/12/09 03:10:38;;;;;;;38.97;16.02;;;;;;;1.97;100.00;100775.69;5028721;28;20041;-62
2022/12/09 03:13:15;;;;;;;45.08;17.05;;;;;;;1.96;100.00;100773.97;5028273;28;20215;-57
2022/12/09 03:15:44;;;;;;;44.20;18.67;;;;;;;1.88;100.00;100771.38;5029419;28;20033;-59
2022/12/09 03:18:12;;;;;;;40.83;16.48;;;;;;;1.96;100.00;100769.63;5028242;28;20395;-61
2022/12/09 03:20:40;;;;;;;43.60;17.95;;;;;;;1.93;100.00;100768.78;5027181;28;20036;-61
2022/12/09 03:23:08;;;;;;;44.55;16.92;;;;;;;1.87;100.00;100775.69;5029319;28;20104;-61
2022/12/09 03:25:38;;;;;;;39.45;16.17;;;;;;;1.88;100.00;100777.44;5027954;28;20120;-54
2022/12/09 03:28:06;;;;;;;37.30;16.55;;;;;;;1.69;100.00;100776.56;5027851;28;20033;-60
2022/12/09 03:30:35;;;;;;;37.17;15.60;;;;;;;1.71;100.00;100780.00;5027411;28;20087;-62
2022/12/09 03:33:03;;;;;;;29.87;14.80;;;;;;;1.69;100.00;100773.94;5027794;28;20276;-61
2022/12/09 03:35:32;;;;;;;39.67;15.82;;;;;;;1.82;100.00;100767.03;5027587;28;20025;-58
2022/12/09 03:37:57;;;;;;;37.85;15.80;;;;;;;1.83;100.00;100767.88;5027548;28;20112;-64
2022/12/09 03:40:26;;;;;;;44.00;17.58;;;;;;;1.66;100.00;100767.88;5027780;28;21185;-63
2022/12/09 03:42:56;;;;;;;49.47;18.42;;;;;;;1.60;100.00;100771.31;5027429;28;20022;-62
2022/12/09 03:45:23;;;;;;;48.72;19.33;;;;;;;1.70;100.00;100759.22;5029081;28;20035;-61
2022/12/09 03:47:49;;;;;;;38.28;16.63;;;;;;;1.75;100.00;100755.75;5026618;28;20037;-60
2022/12/09 03:50:14;;;;;;;48.97;17.70;;;;;;;1.79;100.00;100756.63;5026631;28;20025;-61
2022/12/09 03:52:47;;;;;;;45.42;18.65;;;;;;;1.81;100.00;100757.53;5028656;28;20036;-62
2022/12/09 03:55:27;;;;;;;44.17;18.17;;;;;;;1.86;100.00;100763.56;5029060;28;20084;-62
2022/12/09 03:57:55;;;;;;;48.10;18.88;;;;;;;1.92;100.00;100752.31;5024819;28;20042;-59
2022/12/09 04:00:20;;;;;;;51.50;19.08;;;;;;;1.91;100.00;100758.38;5024105;28;20174;-60
2022/12/09 04:02:46;;;;;;;43.38;18.58;;;;;;;1.99;100.00;100751.44;5027219;28;20579;-62
2022/12/09 04:05:11;;;;;;;52.35;19.48;;;;;;;2.05;100.00;100752.31;5024888;28;20033;-62
2022/12/09 04:07:37;;;;;;;43.00;17.63;;;;;;;2.06;100.00;100751.44;5026225;28;20064;-61
2022/12/09 04:10:03;;;;;;;41.65;17.88;;;;;;;1.99;100.00;100748.00;5026756;28;20013;-63
2022/12/09 04:12:28;;;;;;;39.97;17.23;;;;;;;2.04;100.00;100756.66;5027664;28;20033;-63
2022/12/09 04:14:53;;;;;;;38.95;18.40;;;;;;;1.94;100.00;100760.09;5027889;28;20025;-60
2022/12/09 04:17:19;;;;;;;38.33;17.42;;;;;;;1.90;100.00;100754.06;5028579;28;20484;-63
2022/12/09 04:19:44;;;;;;;39.63;16.63;;;;;;;1.82;100.00;100745.38;5027799;28;20489;-62
2022/12/09 04:22:09;;;;;;;37.58;16.75;;;;;;;1.67;100.00;100747.09;5028705;28;20416;-61
2022/12/09 04:24:35;;;;;;;39.30;17.40;;;;;;;1.74;100.00;100754.03;5028582;28;20556;-62
2022/12/09 04:27:00;;;;;;;40.83;17.42;;;;;;;1.75;100.00;100752.31;5028082;28;20511;-62
2022/12/09 04:29:25;;;;;;;42.30;17.65;;;;;;;1.74;100.00;100759.22;5027197;28;20064;-61
2022/12/09 04:31:51;;;;;;;38.03;17.83;;;;;;;1.70;100.00;100757.50;5027672;28;20053;-62
2022/12/09 04:34:16;;;;;;;39.33;18.42;;;;;;;1.81;100.00;100749.72;5026665;28;20029;-63
2022/12/09 04:36:41;;;;;;;41.63;18.45;;;;;;;1.78;100.00;100754.91;5027174;28;20068;-58
2022/12/09 04:39:07;;;;;;;33.42;17.25;;;;;;;1.73;100.00;100751.44;5027646;28;20121;-63
2022/12/09 04:41:32;;;;;;;34.95;16.08;;;;;;;1.81;100.00;100748.84;5027483;28;20025;-61
2022/12/09 04:43:57;;;;;;;33.42;16.65;;;;;;;1.58;100.00;100747.06;5027888;28;20028;-60
2022/12/09 04:46:23;;;;;;;37.15;17.02;;;;;;;1.58;100.00;100742.75;5028527;28;20156;-63
2022/12/09 04:48:48;;;;;;;30.50;15.10;;;;;;;1.63;100.00;100747.97;5028098;28;20471;-63
2022/12/09 04:51:14;;;;;;;33.47;16.25;;;;;;;1.54;100.00;100750.53;5027616;28;20445;-58
2022/12/09 04:53:40;;;;;;;31.15;14.90;;;;;;;1.56;100.00;100754.84;5027969;28;20049;-59
2022/12/09 04:56:07;;;;;;;30.27;15.40;;;;;;;1.54;100.00;100753.13;5028432;28;20022;-62
2022/12/09 04:58:33;;;;;;;32.20;15.40;;;;;;;1.51;100.00;100754.84;5032394;28;20033;-62
2022/12/09 05:01:07;;;;;;;32.00;15.50;;;;;;;1.54;100.00;100753.13;5031993;28;20025;-63
2022/12/09 05:03:33;;;;;;;34.15;16.10;;;;;;;1.50;100.00;100752.25;5030027;28;20019;-62
2022/12/09 05:05:58;;;;;;;32.60;16.10;;;;;;;1.51;100.00;100747.06;5029106;28;20430;-61
2022/12/09 05:08:23;;;;;;;30.85;15.70;;;;;;;1.48;100.00;100747.03;5030353;28;20301;-59
2022/12/09 05:10:49;;;;;;;30.58;16.98;;;;;;;1.47;100.00;100742.72;5031464;28;20033;-62
2022/12/09 05:13:15;;;;;;;33.58;15.68;;;;;;;1.42;100.00;100747.06;5030481;28;20159;-58
2022/12/09 05:15:41;;;;;;;39.67;15.95;;;;;;;1.43;100.00;100748.78;5030639;28;20047;-62
2022/12/09 05:18:06;;;;;;;32.60;16.83;;;;;;;1.41;100.00;100747.91;5031291;28;20111;-59
2022/12/09 05:20:31;;;;;;;32.25;16.38;;;;;;;1.40;100.00;100751.38;5030333;28;20072;-62
2022/12/09 05:22:57;;;;;;;29.60;15.57;;;;;;;1.41;100.00;100745.28;5030377;28;20030;-62
2022/12/09 05:25:22;;;;;;;32.85;17.10;;;;;;;1.52;100.00;100753.13;5031295;28;20383;-59
2022/12/09 05:27:48;;;;;;;31.83;15.35;;;;;;;1.60;100.00;100742.75;5031113;28;20033;-61
2022/12/09 05:30:14;;;;;;;30.42;16.27;;;;;;;1.58;100.00;100747.94;5030772;28;20463;-59
2022/12/09 05:32:39;;;;;;;39.08;17.33;;;;;;;1.56;100.00;100738.44;5031089;28;20061;-59
2022/12/09 05:35:05;;;;;;;34.22;17.48;;;;;;;1.56;100.00;100738.44;5030727;28;20040;-62
2022/12/09 05:37:30;;;;;;;36.60;17.13;;;;;;;1.59;100.00;100735.81;5030760;28;20105;-61
2022/12/09 05:39:55;;;;;;;30.95;15.68;;;;;;;1.50;100.00;100740.13;5031019;28;20087;-63
2022/12/09 05:42:21;;;;;;;31.52;15.80;;;;;;;1.39;100.00;100737.50;5031145;28;20025;-62
2022/12/09 05:44:46;;;;;;;37.78;18.27;;;;;;;1.29;100.00;100740.09;5028065;28;20033;-63
2022/12/09 05:47:11;;;;;;;29.48;15.98;;;;;;;1.19;100.00;100734.88;5030818;28;20416;-62
2022/12/09 05:49:37;;;;;;;28.27;16.25;;;;;;;1.13;100.00;100730.53;5030078;28;20022;-62
2022/12/09 05:52:03;;;;;;;32.80;16.92;;;;;;;1.15;100.00;100734.84;5030668;28;20049;-61
2022/12/09 05:54:29;;;;;;;33.97;17.45;;;;;;;1.08;100.00;100729.63;5029503;28;20395;-62
2022/12/09 05:56:55;;;;;;;35.25;17.02;;;;;;;0.95;100.00;100731.31;5030277;28;20060;-58
2022/12/09 05:59:21;;;;;;;29.95;16.90;;;;;;;0.88;100.00;100734.75;5029356;28;20037;-61
2022/12/09 06:01:46;;;;;;;30.88;16.17;;;;;;;0.75;100.00;100733.78;5028953;28;20067;-60
2022/12/09 06:04:11;;;;;;;37.65;17.52;;;;;;;0.64;100.00;100736.34;5030092;28;20033;-62
2022/12/09 06:06:37;;;;;;;37.75;16.08;;;;;;;0.57;100.00;100732.00;5029180;28;20037;-63
2022/12/09 06:09:02;;;;;;;33.20;17.00;;;;;;;0.45;100.00;100728.44;5028924;28;20029;-57
2022/12/09 06:11:27;;;;;;;34.67;17.00;;;;;;;0.34;100.00;100733.59;5030404;28;20036;-63
2022/12/09 06:13:53;;;;;;;33.95;16.50;;;;;;;0.28;100.00;100722.28;5030242;28;20160;-62
2022/12/09 06:16:20;;;;;;;32.58;15.48;;;;;;;0.18;100.00;100737.78;5030057;28;20033;-62
2022/12/09 06:18:46;;;;;;;36.05;16.88;;;;;;;0.16;100.00;100725.66;5029896;28;20472;-64
2022/12/09 06:21:13;;;;;;;33.25;15.68;;;;;;;0.13;100.00;100729.13;5029576;28;20111;-64
2022/12/09 06:23:40;;;;;;;35.45;17.42;;;;;;;0.09;100.00;100727.38;5029699;28;20030;-61
2022/12/09 06:26:05;;;;;;;39.08;16.60;;;;;;;0.03;100.00;100724.72;5030521;28;20026;-62
2022/12/09 06:28:31;;;;;;;35.42;15.38;;;;;;;-0.02;100.00;100729.84;5029258;28;20028;-62
2022/12/09 06:30:57;;;;;;;36.85;18.63;;;;;;;-0.03;100.00;100725.53;5029747;28;20030;-63
2022/12/09 06:33:22;;;;;;;34.20;16.92;;;;;;;-0.08;100.00;100729.81;5030079;28;20373;-63
2022/12/09 06:35:47;;;;;;;35.45;15.13;;;;;;;-0.14;100.00;100731.50;5029156;28;20030;-64
2022/12/09 06:38:13;;;;;;;35.95;17.13;;;;;;;-0.13;100.00;100728.03;5029899;28;20127;-64
2022/12/09 06:40:42;;;;;;;36.78;17.17;;;;;;;-0.16;100.00;100727.13;5030291;28;20464;-62
2022/12/09 06:43:08;;;;;;;34.22;17.17;;;;;;;-0.17;100.00;100731.47;5030135;28;20095;-65
2022/12/09 06:45:35;;;;;;;35.38;17.15;;;;;;;-0.19;100.00;100732.28;5029763;28;20021;-59
2022/12/09 06:48:00;;;;;;;33.97;15.63;;;;;;;-0.24;100.00;100728.81;5029324;28;20122;-64
2022/12/09 06:50:25;;;;;;;36.10;16.85;;;;;;;-0.29;100.00;100727.03;5028712;28;20068;-63
2022/12/09 06:52:51;;;;;;;35.20;16.27;;;;;;;-0.31;100.00;100731.34;5028110;28;20033;-63
2022/12/09 06:55:16;;;;;;;34.80;16.05;;;;;;;-0.35;100.00;100734.75;5029103;28;20033;-64
2022/12/09 06:57:41;;;;;;;36.58;16.55;;;;;;;-0.39;100.00;100731.25;5029039;28;20030;-62
2022/12/09 07:00:07;;;;;;;36.50;15.90;;;;;;;-0.40;100.00;100737.28;5029283;28;20034;-64
2022/12/09 07:02:33;;;;;;;39.95;17.63;;;;;;;-0.40;100.00;100736.41;5028752;28;20026;-66
2022/12/09 07:04:58;;;;;;;40.30;17.20;;;;;;;-0.42;100.00;100731.22;5029034;28;20022;-63
2022/12/09 07:07:24;;;;;;;33.65;17.73;;;;;;;-0.41;100.00;100734.69;5029525;28;20065;-62
2022/12/09 07:09:49;;;;;;;39.35;18.15;;;;;;;-0.42;100.00;100731.22;5029757;28;20018;-64
2022/12/09 07:12:15;;;;;;;42.92;18.33;;;;;;;-0.37;100.00;100730.41;5029751;28;20165;-64
2022/12/09 07:14:40;;;;;;;38.75;17.45;;;;;;;-0.36;100.00;100725.22;5029103;28;20056;-60
2022/12/09 07:17:06;;;;;;;41.63;18.52;;;;;;;-0.36;100.00;100730.41;5029797;28;20530;-64
2022/12/09 07:19:31;;;;;;;43.67;18.52;;;;;;;-0.39;100.00;100735.59;5015852;28;20345;-64
2022/12/09 07:21:57;;;;;;;39.92;18.70;;;;;;;-0.42;100.00;100731.22;5009361;28;20026;-64
2022/12/09 07:24:23;;;;;;;40.60;18.52;;;;;;;-0.44;100.00;100737.25;5021282;28;20455;-64
2022/12/09 07:26:48;;;;;;;37.28;17.77;;;;;;;-0.46;100.00;100731.16;5027776;28;20033;-66
2022/12/09 07:29:14;;;;;;;40.63;18.90;;;;;;;-0.46;100.00;100738.94;5027365;28;20428;-63
2022/12/09 07:31:40;;;;;;;40.78;18.77;;;;;;;-0.51;100.00;100733.75;5017100;28;20388;-62
2022/12/09 07:34:05;;;;;;;39.05;17.63;;;;;;;-0.55;100.00;100740.59;5017055;28;20109;-62
2022/12/09 07:36:32;;;;;;;49.28;18.67;;;;;;;-0.54;100.00;100737.16;5018021;28;20053;-62
2022/12/09 07:39:03;;;;;;;44.80;19.75;;;;;;;-0.45;100.00;100735.53;5017186;28;20022;-63
2022/12/09 07:41:29;;;;;;;40.05;18.48;;;;;;;-0.45;100.00;100744.13;5016868;28;20026;-64
2022/12/09 07:43:54;;;;;;;44.72;19.92;;;;;;;-0.40;100.00;100739.00;5021291;28;20049;-63
2022/12/09 07:46:21;;;;;;;43.92;17.75;;;;;;;-0.43;100.00;100738.97;5017016;28;20022;-65
2022/12/09 07:48:47;;;;;;;37.95;17.27;;;;;;;-0.43;100.00;100747.63;5017663;28;20026;-62
2022/12/09 07:51:12;;;;;;;43.15;18.45;;;;;;;-0.45;100.00;100740.69;5015364;28;20033;-64
2022/12/09 07:53:38;;;;;;;40.80;17.05;;;;;;;-0.47;100.00;100747.56;5020621;28;20098;-64
2022/12/09 07:56:05;;;;;;;40.75;17.33;;;;;;;-0.46;100.00;100745.00;5010740;28;20026;-62
2022/12/09 07:58:32;;;;;;;43.00;18.92;;;;;;;-0.42;100.00;100748.50;5007083;28;20041;-63
2022/12/09 08:01:08;;;;;;;48.30;20.42;;;;;;;-0.40;100.00;100739.88;5008292;28;20068;-67
2022/12/09 08:03:34;;;;;;;46.45;18.48;;;;;;;-0.38;100.00;100745.06;5008038;28;20032;-63
2022/12/09 08:06:00;;;;;;;42.42;17.00;;;;;;;-0.37;100.00;100754.56;5007615;28;20120;-63
2022/12/09 08:08:25;;;;;;;47.30;19.33;;;;;;;-0.35;100.00;100757.19;5008039;28;20034;-63
2022/12/09 08:10:50;;;;;;;40.83;18.80;;;;;;;-0.32;100.00;100754.63;5008213;28;20029;-65
2022/12/09 08:13:16;;;;;;;47.20;19.15;;;;;;;-0.33;100.00;100751.16;5008193;28;20034;-63
2022/12/09 08:15:41;;;;;;;40.67;19.08;;;;;;;-0.31;100.00;100752.06;5008018;28;20045;-64
2022/12/09 08:18:07;;;;;;;48.17;20.48;;;;;;;-0.28;100.00;100749.50;5019653;28;20108;-63
2022/12/09 08:20:32;;;;;;;55.30;20.08;;;;;;;-0.25;100.00;100751.22;5025496;28;20064;-64
2022/12/09 08:22:57;;;;;;;42.33;19.08;;;;;;;-0.23;100.00;100751.25;5018236;28;20068;-63
2022/12/09 08:25:23;;;;;;;43.55;18.48;;;;;;;-0.20;100.00;100756.47;5017708;28;20024;-63
2022/12/09 08:27:48;;;;;;;49.63;19.75;;;;;;;-0.17;100.00;100753.91;5015522;28;20061;-63
2022/12/09 08:30:14;;;;;;;42.83;18.98;;;;;;;-0.13;100.00;100758.25;5021521;28;20065;-62
2022/12/09 08:32:39;;;;;;;57.55;20.75;;;;;;;-0.10;100.00;100753.09;5022418;28;20026;-62
2022/12/09 08:35:05;;;;;;;45.83;20.40;;;;;;;-0.04;100.00;100749.69;5018749;28;20091;-63
2022/12/09 08:37:30;;;;;;;52.17;19.60;;;;;;;-0.02;100.00;100754.06;5017500;28;20481;-63
2022/12/09 08:39:55;;;;;;;46.60;20.45;;;;;;;0.02;100.00;100756.63;5023565;28;20388;-62
2022/12/09 08:42:20;;;;;;;54.72;20.73;;;;;;;0.06;100.00;100755.84;5024599;28;20483;-60
2022/12/09 08:44:46;;;;;;;53.05;21.15;;;;;;;0.11;100.00;100757.59;5024103;28;20033;-60
2022/12/09 08:47:11;;;;;;;51.97;20.98;;;;;;;0.15;100.00;100750.69;5021284;28;20018;-62
2022/12/09 08:49:37;;;;;;;45.63;20.60;;;;;;;0.19;100.00;100757.66;5015811;28;20048;-64
2022/12/09 08:52:02;;;;;;;60.05;22.27;;;;;;;0.21;100.00;100757.69;5017769;28;20179;-63
2022/12/09 08:54:28;;;;;;;55.45;22.40;;;;;;;0.30;100.00;100762.06;5016368;28;20053;-62
2022/12/09 08:56:54;;;;;;;55.05;21.85;;;;;;;0.32;100.00;100755.16;5016865;28;20071;-61
2022/12/09 08:59:19;;;;;;;46.83;20.88;;;;;;;0.36;100.00;100754.34;5023839;28;20038;-61
2022/12/09 09:01:45;;;;;;;52.75;20.75;;;;;;;0.40;100.00;100755.22;5022674;28;20032;-61
2022/12/09 09:04:13;;;;;;;54.83;20.67;;;;;;;0.46;100.00;100760.44;5025386;28;20060;-63
2022/12/09 09:06:40;;;;;;;53.80;20.20;;;;;;;0.50;100.00;100757.00;5019151;28;20029;-62
2022/12/09 09:09:06;;;;;;;49.35;21.63;;;;;;;0.56;100.00;100758.75;5017477;28;20075;-66
2022/12/09 09:11:32;;;;;;;53.75;20.02;;;;;;;0.59;100.00;100758.78;5015446;28;20021;-61
2022/12/09 09:13:57;;;;;;;57.60;22.35;;;;;;;0.61;100.00;100757.94;5016469;28;20033;-62
2022/12/09 09:16:25;;;;;;;52.75;22.33;;;;;;;0.67;100.00;100759.72;5016473;28;20555;-62
2022/12/09 09:18:50;;;;;;;52.30;20.13;;;;;;;0.77;100.00;100755.44;5015613;28;20049;-65
2022/12/09 09:21:18;;;;;;;46.20;19.10;;;;;;;0.83;100.00;100758.06;5009203;28;20092;-63
2022/12/09 09:23:44;;;;;;;48.47;20.27;;;;;;;0.86;100.00;100752.03;5009828;28;21193;-60
2022/12/09 09:26:12;;;;;;;51.03;19.67;;;;;;;0.92;100.00;100762.44;5015296;28;20038;-61
2022/12/09 09:28:37;;;;;;;54.97;21.63;;;;;;;1.00;100.00;100758.13;5011425;28;20040;-61
2022/12/09 09:31:04;;;;;;;58.03;21.33;;;;;;;1.03;100.00;100762.50;5016930;28;20026;-62
2022/12/09 09:33:30;;;;;;;55.50;23.40;;;;;;;1.16;100.00;100762.53;5016510;28;20029;-62
2022/12/09 09:35:56;;;;;;;50.97;21.65;;;;;;;1.21;100.00;100759.06;5015404;28;20442;-63
2022/12/09 09:38:22;;;;;;;61.03;23.45;;;;;;;1.24;100.00;100766.03;5024214;28;20026;-61
2022/12/09 09:40:48;;;;;;;59.53;22.02;;;;;;;1.31;100.00;100761.72;5023933;28;20033;-61
2022/12/09 09:43:15;;;;;;;57.47;21.48;;;;;;;1.33;100.00;100763.47;5027235;28;20059;-61
2022/12/09 09:45:40;;;;;;;59.58;23.67;;;;;;;1.45;100.00;100773.03;5029721;28;20172;-59
2022/12/09 09:48:08;;;;;;;59.15;23.27;;;;;;;1.49;100.00;100764.38;5029207;28;20796;-62
2022/12/09 09:50:42;;;;;;;62.00;24.27;;;;;;;1.60;100.00;100774.78;5027418;28;20034;-61
2022/12/09 09:53:31;;;;;;;64.28;23.10;;;;;;;1.71;100.00;100771.31;5029896;28;20036;-64
2022/12/09 09:56:36;;;;;;;68.05;23.52;;;;;;;1.80;100.00;100784.34;5028745;28;20485;-63
2022/12/09 09:59:08;;;;;;;61.83;23.60;;;;;;;1.82;100.00;100782.63;5028822;28;20559;-64
2022/12/09 10:01:35;;;;;;;59.80;24.20;;;;;;;1.89;100.00;100778.28;5028784;28;20021;-64
2022/12/09 10:04:25;;;;;;;58.97;23.63;;;;;;;1.95;100.00;100782.63;5027824;28;20582;-63
2022/12/09 10:07:08;;;;;;;56.17;23.83;;;;;;;2.00;100.00;100781.78;5022146;28;20109;-62
2022/12/09 10:09:42;;;;;;;60.40;23.92;;;;;;;1.99;100.00;100787.81;5028615;28;20495;-58
2022/12/09 10:12:42;;;;;;;62.80;24.20;;;;;;;2.26;100.00;100786.09;5028857;28;20028;-63
2022/12/09 10:15:21;;;;;;;58.70;24.92;;;;;;;2.32;100.00;100777.44;5027906;28;20037;-64
2022/12/09 10:18:03;;;;;;;63.33;24.83;;;;;;;2.45;100.00;100777.44;5026513;28;20079;-64
2022/12/09 10:20:29;;;;;;;62.35;26.83;;;;;;;2.62;100.00;100778.25;5024046;28;20468;-64
2022/12/09 10:22:59;;;;;;;65.35;26.95;;;;;;;2.74;100.00;100773.91;5023447;28;20036;-62
2022/12/09 10:25:27;;;;;;;62.72;25.70;;;;;;;2.77;100.00;100774.75;5012834;28;20030;-66
2022/12/09 10:28:00;;;;;;;63.63;26.17;;;;;;;3.16;100.00;100782.44;5020933;28;20450;-63
2022/12/09 10:30:25;;;;;;;60.17;26.13;;;;;;;3.38;100.00;100782.38;5024772;28;20861;-65
2022/12/09 10:32:52;;;;;;;52.60;24.33;;;;;;;3.43;100.00;100786.69;5025899;28;20026;-66
2022/12/09 10:35:20;;;;;;;52.90;24.77;;;;;;;3.44;100.00;100786.69;5028468;28;20111;-64
2022/12/09 10:37:47;;;;;;;52.40;25.33;;;;;;;3.71;100.00;100781.31;5024551;28;20037;-63
2022/12/09 10:40:25;;;;;;;50.22;24.40;;;;;;;3.90;100.00;100775.09;5028635;28;20021;-61
2022/12/09 10:45:50;;;;;;;45.10;22.70;;;;;;;3.98;100.00;100772.44;5029225;28;20037;-60
2022/12/09 10:48:28;;;;;;;48.15;23.20;;;;;;;4.15;100.00;100764.47;5018899;28;20068;-64
2022/12/09 10:50:56;;;;;;;43.92;21.40;;;;;;;4.45;100.00;100750.31;5015439;28;20037;-60
2022/12/09 10:53:22;;;;;;;37.75;20.20;;;;;;;4.48;100.00;100751.13;5018181;28;20104;-63
2022/12/09 10:55:52;;;;;;;37.45;21.20;;;;;;;4.49;100.00;100746.78;5019275;28;20104;-62
2022/12/09 10:58:23;;;;;;;41.80;20.38;;;;;;;4.21;100.00;100753.13;5022963;28;20029;-60
2022/12/09 11:03:30;;;;;;;36.17;19.52;;;;;;;4.18;100.00;100747.94;3742711;22;20054;-69
2022/12/09 11:06:03;;;;;;;37.92;19.40;;;;;;;4.06;100.00;100745.44;5007667;28;20069;-69
2022/12/09 11:08:28;;;;;;;42.42;19.83;;;;;;;4.11;100.00;100748.88;4991228;28;20037;-68
2022/12/09 11:10:54;;;;;;;35.47;19.33;;;;;;;4.21;100.00;100740.06;4991180;28;20027;-68
2022/12/09 11:13:20;;;;;;;43.90;20.25;;;;;;;4.17;100.00;100748.81;4975704;28;20599;-66
2022/12/09 11:15:52;;;;;;;40.15;20.27;;;;;;;4.16;100.00;100744.50;4973525;28;20101;-64
2022/12/09 11:18:27;;;;;;;37.70;19.20;;;;;;;4.29;100.00;100738.28;4991520;28;20049;-68